Comet, North Carolina
Current Conditions -  °F | °C
As of 2:55 PM on Sunday 23 Nov 2014 (Local Time) from KGEV Reporting Station
Light Rain Light Rain  
Wind Chill: 41°   Ceiling: 200
Heat Index: 44°   Visibility: 1mi
Dew Point: 43°   Wind: 5mph
Humidity: 99%   Direction: 130°SE
Pressure: 29.97"   Gusts: NA
Location:  36.524°N, 81.538°W
Report Text: KGEV 231955Z AUTO 13004KT 1SM -RA OVC002 07/06 A2997 RMK AO2 P0001 T00650063
Loading
Personal Weather Stations






























Interactive Weather Map New forecast layout! Learn more

10-Day Weather Forecast

Advertisements
Track Severe Weather on mobile